Time;durP1;ratioP1;P1;durP2;ratioP2;P2;SDS_P1;SDS_P2;PMS_P1;PMS_P2;Temp;Humidity;BMP_temperature;BMP_pressure;BME280_temperature;BME280_humidity;BME280_pressure;Samples;Min_cycle;Max_cycle;Signal;HPM_P1;HPM_P2
2024/03/15 00:02:25;;;;;;;15.93;14.23;;;10.00;1.00;;;;;;5074616;28;20489;-72
2024/03/15 00:04:52;;;;;;;16.90;14.10;;;10.00;1.00;;;;;;5067506;28;20473;-72
2024/03/15 00:07:20;;;;;;;17.17;13.40;;;9.90;1.00;;;;;;5065705;28;20462;-72
2024/03/15 00:09:47;;;;;;;17.80;13.87;;;9.80;1.00;;;;;;5069726;28;20466;-73
2024/03/15 00:12:14;;;;;;;17.90;14.47;;;9.80;1.00;;;;;;5070252;28;20517;-73
2024/03/15 00:14:42;;;;;;;18.57;15.37;;;9.80;1.00;;;;;;5058917;28;20477;-70
2024/03/15 00:17:09;;;;;;;17.07;14.27;;;9.80;1.00;;;;;;5069481;27;21097;-72
2024/03/15 00:19:36;;;;;;;16.53;14.80;;;9.80;1.00;;;;;;5066001;28;20458;-71
2024/03/15 00:22:03;;;;;;;19.13;15.30;;;9.70;1.00;;;;;;5072872;27;20540;-72
2024/03/15 00:24:30;;;;;;;19.27;16.17;;;9.70;1.00;;;;;;5055002;28;20574;-75
2024/03/15 00:26:59;;;;;;;17.17;14.47;;;9.70;1.00;;;;;;5065799;28;20446;-72
2024/03/15 00:29:27;;;;;;;17.20;14.80;;;9.80;1.00;;;;;;5073078;28;20541;-73
2024/03/15 00:31:54;;;;;;;17.03;14.33;;;9.70;1.00;;;;;;5064724;28;20457;-73
2024/03/15 00:34:21;;;;;;;18.57;15.93;;;9.70;1.00;;;;;;5064392;28;20459;-73
2024/03/15 00:36:48;;;;;;;22.07;15.70;;;9.80;1.00;;;;;;5065192;28;20485;-73
2024/03/15 00:39:15;;;;;;;18.47;14.70;;;9.70;1.00;;;;;;5067923;27;20888;-72
2024/03/15 00:41:42;;;;;;;16.43;14.63;;;9.70;1.00;;;;;;5063908;28;20492;-73
2024/03/15 00:44:09;;;;;;;18.13;15.40;;;9.70;1.00;;;;;;5055586;28;20544;-73
2024/03/15 00:46:37;;;;;;;18.53;15.23;;;9.60;1.00;;;;;;5058225;28;21278;-72
2024/03/15 00:49:05;;;;;;;19.10;14.57;;;9.60;1.00;;;;;;5072215;28;20958;-72
2024/03/15 00:51:32;;;;;;;19.80;15.70;;;9.60;1.00;;;;;;5067991;28;21455;-73
2024/03/15 00:53:59;;;;;;;18.03;15.30;;;9.50;1.00;;;;;;5068075;28;20987;-72
2024/03/15 00:56:26;;;;;;;17.97;14.77;;;9.50;1.00;;;;;;5055327;28;20462;-72
2024/03/15 00:58:54;;;;;;;17.00;15.20;;;9.50;1.00;;;;;;5069011;28;20553;-72
2024/03/15 01:01:21;;;;;;;21.00;16.63;;;9.50;1.00;;;;;;5067758;28;20469;-70
2024/03/15 01:03:48;;;;;;;18.77;16.07;;;9.50;1.00;;;;;;5073667;28;20470;-74
2024/03/15 01:06:15;;;;;;;19.47;15.23;;;9.50;1.00;;;;;;5062338;28;20447;-72
2024/03/15 01:08:42;;;;;;;17.67;15.13;;;9.50;1.00;;;;;;5076550;27;20492;-74
2024/03/15 01:11:09;;;;;;;18.10;15.00;;;9.50;1.00;;;;;;5073843;28;21238;-74
2024/03/15 01:13:35;;;;;;;17.27;15.47;;;9.40;1.00;;;;;;5054551;28;20494;-73
2024/03/15 01:16:12;;;;;;;20.13;15.57;;;9.40;1.00;;;;;;5065355;28;20550;-74
2024/03/15 01:18:40;;;;;;;18.90;16.10;;;9.40;1.00;;;;;;5065602;28;20484;-71
2024/03/15 01:21:07;;;;;;;18.00;16.10;;;9.40;1.00;;;;;;5063969;28;20481;-72
2024/03/15 01:23:34;;;;;;;19.07;15.80;;;9.40;1.00;;;;;;5072570;28;20478;-73
2024/03/15 01:26:01;;;;;;;18.23;16.33;;;9.40;1.00;;;;;;5069150;28;20439;-73
2024/03/15 01:28:30;;;;;;;19.70;17.60;;;9.40;1.00;;;;;;5070618;28;20523;-72
2024/03/15 01:30:59;;;;;;;21.03;17.53;;;9.30;1.00;;;;;;5073393;28;20458;-72
2024/03/15 01:33:26;;;;;;;19.80;16.30;;;9.30;1.00;;;;;;5072762;28;20474;-72
2024/03/15 01:35:53;;;;;;;19.03;16.50;;;9.20;1.00;;;;;;5070245;28;20922;-73
2024/03/15 01:38:20;;;;;;;21.43;17.27;;;9.30;1.00;;;;;;5071292;28;20542;-72
2024/03/15 01:40:47;;;;;;;19.43;17.07;;;9.40;1.00;;;;;;5080907;27;20454;-73
2024/03/15 01:43:16;;;;;;;18.87;16.87;;;9.30;1.00;;;;;;5060510;28;20547;-73
2024/03/15 01:45:43;;;;;;;22.77;18.63;;;9.30;1.00;;;;;;5059207;28;20600;-73
2024/03/15 01:48:11;;;;;;;23.03;19.03;;;9.40;1.00;;;;;;5065059;28;20466;-75
2024/03/15 01:50:38;;;;;;;22.90;18.60;;;9.40;1.00;;;;;;5057879;28;20471;-74
2024/03/15 01:53:05;;;;;;;21.57;18.50;;;9.50;1.00;;;;;;5073440;28;20951;-74
2024/03/15 01:55:33;;;;;;;20.47;17.90;;;9.50;1.00;;;;;;5057728;28;20860;-73
2024/03/15 01:58:00;;;;;;;21.30;19.00;;;9.50;1.00;;;;;;5071527;27;20468;-73
2024/03/15 02:00:27;;;;;;;20.17;15.70;;;9.60;1.00;;;;;;5073540;28;20458;-73
2024/03/15 02:02:55;;;;;;;20.77;18.67;;;9.60;1.00;;;;;;5078769;28;20457;-73
2024/03/15 02:05:22;;;;;;;21.53;19.30;;;9.60;1.00;;;;;;5076315;28;20460;-73
2024/03/15 02:07:50;;;;;;;20.70;18.07;;;9.50;1.00;;;;;;5070691;28;20498;-72
2024/03/15 02:10:17;;;;;;;24.83;20.17;;;9.40;1.00;;;;;;5064683;28;20839;-73
2024/03/15 02:12:44;;;;;;;23.33;20.10;;;9.40;1.00;;;;;;5070976;28;20502;-74
2024/03/15 02:15:11;;;;;;;21.27;18.97;;;9.40;1.00;;;;;;5067765;28;20603;-73
2024/03/15 02:17:40;;;;;;;25.60;21.10;;;9.40;1.00;;;;;;5063728;28;20496;-72
2024/03/15 02:20:11;;;;;;;22.23;19.83;;;9.30;1.00;;;;;;5065424;28;20512;-73
2024/03/15 02:22:39;;;;;;;23.90;20.37;;;9.30;1.00;;;;;;5071653;28;20479;-74
2024/03/15 02:25:07;;;;;;;21.80;19.00;;;9.30;1.00;;;;;;5065866;28;20461;-73
2024/03/15 02:27:34;;;;;;;26.73;21.57;;;9.30;1.00;;;;;;5067237;27;20461;-75
2024/03/15 02:30:01;;;;;;;23.70;20.50;;;9.20;1.00;;;;;;5064021;28;21005;-73
2024/03/15 02:32:28;;;;;;;27.43;20.70;;;9.20;1.00;;;;;;5062733;28;20965;-75
2024/03/15 02:34:55;;;;;;;24.27;20.60;;;9.20;1.00;;;;;;5057376;28;20623;-73
2024/03/15 02:37:22;;;;;;;23.97;20.13;;;9.20;1.00;;;;;;5055614;28;20586;-73
2024/03/15 02:39:51;;;;;;;27.87;22.17;;;9.20;1.00;;;;;;5065895;28;20502;-73
2024/03/15 02:42:18;;;;;;;23.90;21.27;;;9.30;1.00;;;;;;5070839;28;20644;-73
2024/03/15 02:44:45;;;;;;;27.03;21.90;;;9.30;1.00;;;;;;5070841;28;20536;-72
2024/03/15 02:47:12;;;;;;;25.40;20.70;;;9.30;1.00;;;;;;5069014;28;20458;-74
2024/03/15 02:49:39;;;;;;;24.30;21.07;;;9.30;1.00;;;;;;5072329;27;21044;-73
2024/03/15 02:52:06;;;;;;;26.77;22.33;;;9.30;1.00;;;;;;5070597;28;20487;-74
2024/03/15 02:54:33;;;;;;;24.57;21.23;;;9.30;1.00;;;;;;5069460;28;20754;-74
2024/03/15 02:57:00;;;;;;;26.37;20.90;;;9.40;1.00;;;;;;5060772;28;20505;-73
2024/03/15 02:59:27;;;;;;;25.10;20.90;;;9.30;1.00;;;;;;5069721;28;21249;-72
2024/03/15 03:01:54;;;;;;;24.63;21.90;;;9.20;1.00;;;;;;5070869;28;20474;-73
2024/03/15 03:04:21;;;;;;;24.10;21.13;;;9.20;1.00;;;;;;5070339;28;21079;-74
2024/03/15 03:06:48;;;;;;;23.90;21.37;;;9.10;1.00;;;;;;5071411;28;20957;-74
2024/03/15 03:09:17;;;;;;;24.90;21.30;;;9.10;1.00;;;;;;5069596;28;20538;-73
2024/03/15 03:11:43;;;;;;;25.30;22.17;;;9.00;1.00;;;;;;5069220;28;20470;-77
2024/03/15 03:14:12;;;;;;;27.10;22.57;;;9.00;1.00;;;;;;5067710;28;20458;-74
2024/03/15 03:16:42;;;;;;;25.27;21.77;;;9.10;1.00;;;;;;5073621;28;20470;-72
2024/03/15 03:19:09;;;;;;;25.70;21.40;;;9.00;1.00;;;;;;5053749;28;20451;-72
2024/03/15 03:21:36;;;;;;;23.50;21.00;;;9.00;1.00;;;;;;5064590;27;20976;-72
2024/03/15 03:24:04;;;;;;;25.60;21.20;;;9.00;1.00;;;;;;5071784;28;20546;-72
2024/03/15 03:26:31;;;;;;;29.07;21.17;;;8.90;1.00;;;;;;5074477;27;20536;-73
2024/03/15 03:28:58;;;;;;;26.07;23.23;;;8.90;1.00;;;;;;5062623;28;20538;-72
2024/03/15 03:31:25;;;;;;;29.50;24.67;;;8.80;1.00;;;;;;5059023;28;20495;-71
2024/03/15 03:33:52;;;;;;;30.30;23.23;;;8.80;1.00;;;;;;5068803;28;20950;-73
2024/03/15 03:36:19;;;;;;;26.50;22.17;;;8.80;1.00;;;;;;5064582;28;21038;-72
2024/03/15 03:38:47;;;;;;;30.40;22.70;;;8.80;1.00;;;;;;5070322;28;20909;-72
2024/03/15 03:41:14;;;;;;;26.43;22.43;;;8.80;1.00;;;;;;5067942;28;20545;-72
2024/03/15 03:43:43;;;;;;;28.57;23.17;;;8.80;1.00;;;;;;5072344;28;20542;-74
2024/03/15 03:46:11;;;;;;;29.43;22.27;;;8.80;1.00;;;;;;5072308;27;20497;-73
2024/03/15 03:48:38;;;;;;;28.70;22.70;;;8.80;1.00;;;;;;5063296;28;20469;-74
2024/03/15 03:51:05;;;;;;;29.63;21.63;;;8.80;1.00;;;;;;5067847;28;20582;-74
2024/03/15 03:53:32;;;;;;;27.80;21.93;;;8.80;1.00;;;;;;5069274;28;20450;-73
2024/03/15 03:55:59;;;;;;;28.93;23.90;;;8.70;1.00;;;;;;5065545;28;20764;-72
2024/03/15 03:58:27;;;;;;;26.40;21.80;;;8.80;1.00;;;;;;5054826;28;20948;-73
2024/03/15 04:00:53;;;;;;;30.23;23.60;;;8.80;1.00;;;;;;5066278;28;21048;-74
2024/03/15 04:03:20;;;;;;;29.10;23.13;;;8.80;1.00;;;;;;5068739;28;20986;-73
2024/03/15 04:05:47;;;;;;;25.57;22.37;;;8.80;1.00;;;;;;5068523;28;20454;-73
2024/03/15 04:08:15;;;;;;;28.57;22.53;;;8.80;1.00;;;;;;5072301;27;20965;-73
2024/03/15 04:10:43;;;;;;;27.73;24.77;;;8.80;1.00;;;;;;5072184;27;20475;-74
2024/03/15 04:13:10;;;;;;;32.13;25.20;;;8.80;1.00;;;;;;5066244;28;20438;-77
2024/03/15 04:15:37;;;;;;;30.87;24.90;;;8.80;1.00;;;;;;5065619;27;20477;-73
2024/03/15 04:18:04;;;;;;;31.53;24.73;;;8.80;1.00;;;;;;5060021;28;20644;-72
2024/03/15 04:20:33;;;;;;;34.53;25.43;;;8.80;1.00;;;;;;5053876;28;20571;-72
2024/03/15 04:23:00;;;;;;;30.50;24.47;;;8.80;1.00;;;;;;5063542;28;20469;-73
2024/03/15 04:25:27;;;;;;;32.27;24.27;;;8.70;1.00;;;;;;5052076;28;20466;-73
2024/03/15 04:27:55;;;;;;;31.67;26.23;;;8.80;1.00;;;;;;5053064;28;20558;-75
2024/03/15 04:30:22;;;;;;;32.30;24.83;;;8.80;1.00;;;;;;5078810;28;21040;-73
2024/03/15 04:32:50;;;;;;;30.70;24.03;;;8.80;1.00;;;;;;5067762;28;20474;-72
2024/03/15 04:35:17;;;;;;;34.23;24.27;;;8.70;1.00;;;;;;5063711;28;20473;-73
2024/03/15 04:37:44;;;;;;;30.47;24.87;;;8.70;1.00;;;;;;5070243;28;20462;-73
2024/03/15 04:40:13;;;;;;;34.30;26.37;;;8.70;1.00;;;;;;5071852;27;20477;-75
2024/03/15 04:42:40;;;;;;;29.80;26.17;;;8.70;1.00;;;;;;5067856;28;20933;-72
2024/03/15 04:45:09;;;;;;;35.13;26.93;;;8.80;1.00;;;;;;5069252;28;21067;-74
2024/03/15 04:47:37;;;;;;;33.30;26.93;;;8.90;1.00;;;;;;5074565;28;20456;-73
2024/03/15 04:50:05;;;;;;;31.13;26.13;;;9.00;1.00;;;;;;5074456;28;20490;-75
2024/03/15 04:52:33;;;;;;;33.23;27.20;;;8.90;1.00;;;;;;5077484;27;20457;-73
2024/03/15 04:55:00;;;;;;;35.40;25.47;;;8.80;1.00;;;;;;5081736;27;20474;-73
2024/03/15 04:57:27;;;;;;;34.70;27.90;;;8.70;1.00;;;;;;5067160;28;20454;-73
2024/03/15 04:59:54;;;;;;;32.97;26.93;;;8.70;1.00;;;;;;5075006;28;20438;-73
2024/03/15 05:02:22;;;;;;;31.67;26.57;;;8.80;1.00;;;;;;5063878;28;20470;-73
2024/03/15 05:04:49;;;;;;;31.30;25.13;;;8.80;1.00;;;;;;5055734;28;20547;-75
2024/03/15 05:07:16;;;;;;;32.47;26.60;;;8.80;1.00;;;;;;5069413;27;20934;-72
2024/03/15 05:09:43;;;;;;;31.47;24.73;;;8.80;1.00;;;;;;5070171;27;22459;-72
2024/03/15 05:12:10;;;;;;;30.60;25.73;;;8.80;1.00;;;;;;5073399;28;20461;-73
2024/03/15 05:14:37;;;;;;;34.20;26.27;;;8.80;1.00;;;;;;5079175;28;20489;-73
2024/03/15 05:17:04;;;;;;;36.33;27.10;;;8.80;1.00;;;;;;5077529;27;20497;-74
2024/03/15 05:19:31;;;;;;;34.20;26.40;;;8.80;1.00;;;;;;5074209;27;21349;-70
2024/03/15 05:21:59;;;;;;;32.03;27.03;;;8.80;1.00;;;;;;5080028;28;20465;-69
2024/03/15 05:24:26;;;;;;;32.50;26.10;;;8.80;1.00;;;;;;5077889;27;21086;-72
2024/03/15 05:26:53;;;;;;;29.33;23.90;;;8.70;1.00;;;;;;5068556;28;20830;-69
2024/03/15 05:29:21;;;;;;;38.57;29.27;;;8.80;1.00;;;;;;5057898;28;20436;-70
2024/03/15 05:31:48;;;;;;;33.50;27.00;;;8.70;1.00;;;;;;5057428;28;20497;-73
2024/03/15 05:34:15;;;;;;;38.30;26.50;;;8.70;1.00;;;;;;5074738;28;20481;-70
2024/03/15 05:36:43;;;;;;;34.13;27.00;;;8.70;1.00;;;;;;5065011;28;20526;-73
2024/03/15 05:39:10;;;;;;;32.50;25.33;;;8.70;1.00;;;;;;5071812;28;20855;-68
2024/03/15 05:41:38;;;;;;;36.37;25.37;;;8.70;1.00;;;;;;5083623;27;20450;-70
2024/03/15 05:44:05;;;;;;;34.60;27.37;;;8.70;1.00;;;;;;5075740;28;20464;-73
2024/03/15 05:46:32;;;;;;;37.87;27.97;;;8.80;1.00;;;;;;5076735;28;20463;-70
2024/03/15 05:49:00;;;;;;;31.87;24.43;;;8.90;1.00;;;;;;5066985;28;20470;-70
2024/03/15 05:51:29;;;;;;;33.27;27.07;;;8.80;1.00;;;;;;5074091;27;20461;-72
2024/03/15 05:53:58;;;;;;;29.60;23.67;;;8.80;1.00;;;;;;5057466;28;20971;-69
2024/03/15 05:56:25;;;;;;;33.90;24.90;;;8.80;1.00;;;;;;5082713;27;20962;-71
2024/03/15 05:58:52;;;;;;;33.20;25.90;;;8.80;1.00;;;;;;5065338;28;20474;-71
2024/03/15 06:01:19;;;;;;;32.97;27.27;;;8.80;1.00;;;;;;5055909;28;20831;-70
2024/03/15 06:03:47;;;;;;;33.70;26.03;;;8.90;1.00;;;;;;5071014;28;20460;-70
2024/03/15 06:06:14;;;;;;;35.20;26.80;;;8.90;1.00;;;;;;5072736;27;20508;-70
2024/03/15 06:08:42;;;;;;;30.33;25.60;;;8.90;1.00;;;;;;5072798;27;20470;-71
2024/03/15 06:11:10;;;;;;;29.90;25.00;;;9.00;1.00;;;;;;5042564;28;20465;-71
2024/03/15 06:13:37;;;;;;;32.53;25.17;;;9.00;1.00;;;;;;5048677;28;20485;-71
2024/03/15 06:16:04;;;;;;;34.70;26.57;;;9.00;1.00;;;;;;5029720;28;20543;-71
2024/03/15 06:18:33;;;;;;;37.33;28.50;;;9.10;1.00;;;;;;5036272;28;21259;-70
2024/03/15 06:21:01;;;;;;;36.70;26.93;;;9.20;1.00;;;;;;5078289;28;20473;-69
2024/03/15 06:23:28;;;;;;;33.73;25.17;;;9.20;1.00;;;;;;5050109;28;20463;-70
2024/03/15 06:25:55;;;;;;;35.50;26.20;;;9.10;1.00;;;;;;5049173;28;20463;-71
2024/03/15 06:28:22;;;;;;;34.07;25.53;;;9.20;1.00;;;;;;5050747;28;20506;-71
2024/03/15 06:30:53;;;;;;;32.63;25.70;;;9.20;1.00;;;;;;5045478;28;20517;-70
2024/03/15 06:33:21;;;;;;;37.83;27.50;;;9.30;1.00;;;;;;5047448;28;20472;-71
2024/03/15 06:36:00;;;;;;;29.27;24.50;;;9.40;1.00;;;;;;5032170;28;20550;-75
2024/03/15 06:38:40;;;;;;;30.60;26.23;;;9.60;1.00;;;;;;5039931;28;21329;-70
2024/03/15 06:41:13;;;;;;;31.50;23.43;;;9.70;1.00;;;;;;5039182;28;20538;-74
2024/03/15 06:43:42;;;;;;;32.17;25.50;;;9.70;1.00;;;;;;5045898;28;20611;-75
2024/03/15 06:46:23;;;;;;;32.03;24.70;;;9.90;1.00;;;;;;5049566;28;20910;-72
2024/03/15 06:48:57;;;;;;;32.60;23.20;;;10.10;1.00;;;;;;5033723;28;20559;-70
2024/03/15 06:54:11;;;;;;;30.40;23.37;;;10.60;1.00;;;;;;5056468;27;20455;-74
2024/03/15 06:56:41;;;;;;;27.63;23.30;;;10.80;1.00;;;;;;5041457;28;20461;-72
2024/03/15 06:59:09;;;;;;;26.17;21.97;;;11.00;1.00;;;;;;5031448;28;20508;-72
2024/03/15 07:01:36;;;;;;;26.30;22.63;;;11.00;1.00;;;;;;5044523;28;20542;-71
2024/03/15 07:04:05;;;;;;;27.33;23.17;;;11.10;1.00;;;;;;5043736;28;20467;-70
2024/03/15 07:06:32;;;;;;;29.90;22.37;;;11.20;1.00;;;;;;5031714;28;20453;-71
2024/03/15 07:09:04;;;;;;;25.57;21.37;;;11.30;1.00;;;;;;5028902;28;20530;-70
2024/03/15 07:11:32;;;;;;;23.97;21.43;;;11.40;1.00;;;;;;5056047;28;20482;-71
2024/03/15 07:13:59;;;;;;;25.63;21.17;;;11.60;1.00;;;;;;5050266;28;20544;-71
2024/03/15 07:16:29;;;;;;;22.77;19.57;;;11.70;1.00;;;;;;5049359;28;20490;-71
2024/03/15 07:18:56;;;;;;;24.20;20.60;;;11.80;1.00;;;;;;5058569;28;20475;-72
2024/03/15 07:21:25;;;;;;;24.83;19.73;;;11.80;1.00;;;;;;5071940;28;20542;-72
2024/03/15 07:23:52;;;;;;;24.77;20.20;;;11.80;1.00;;;;;;5073185;28;20562;-75
2024/03/15 07:26:22;;;;;;;20.70;18.47;;;11.90;1.00;;;;;;5061307;28;20512;-70
2024/03/15 07:28:49;;;;;;;21.60;19.20;;;11.80;1.00;;;;;;5063795;28;21215;-72
2024/03/15 07:31:16;;;;;;;22.47;18.10;;;11.60;1.00;;;;;;5061605;28;20458;-71
2024/03/15 07:33:43;;;;;;;20.57;16.70;;;11.70;1.00;;;;;;5060038;28;20481;-72
2024/03/15 07:36:13;;;;;;;20.03;17.70;;;11.80;1.00;;;;;;5070414;27;20449;-71
2024/03/15 07:38:41;;;;;;;19.57;17.03;;;11.70;1.00;;;;;;5052772;28;20472;-77
2024/03/15 07:41:10;;;;;;;23.40;19.60;;;11.70;1.00;;;;;;5069671;28;20509;-75
2024/03/15 07:43:37;;;;;;;19.47;17.57;;;11.80;1.00;;;;;;5063164;28;20538;-74
2024/03/15 07:46:05;;;;;;;19.53;17.43;;;11.90;1.00;;;;;;5069921;27;20556;-75
2024/03/15 07:48:32;;;;;;;19.33;16.50;;;12.00;1.00;;;;;;5062522;28;20529;-74
2024/03/15 07:50:59;;;;;;;21.17;16.90;;;12.10;1.00;;;;;;5069840;28;20465;-76
2024/03/15 07:53:26;;;;;;;18.73;16.47;;;12.20;1.00;;;;;;5069193;28;20515;-72
2024/03/15 07:55:53;;;;;;;20.07;16.70;;;12.30;1.00;;;;;;5074519;27;20498;-75
2024/03/15 07:58:20;;;;;;;19.43;17.40;;;12.40;1.00;;;;;;5071992;27;20462;-75
2024/03/15 08:00:47;;;;;;;17.60;14.70;;;12.60;1.00;;;;;;5070400;28;20509;-73
2024/03/15 08:03:17;;;;;;;20.07;17.17;;;12.80;1.00;;;;;;5070478;27;20480;-76
2024/03/15 08:05:48;;;;;;;17.37;15.67;;;13.10;1.00;;;;;;5072517;27;22269;-75
2024/03/15 08:08:15;;;;;;;22.47;17.80;;;13.00;1.00;;;;;;5071602;28;20463;-77
2024/03/15 08:10:42;;;;;;;18.13;16.20;;;13.30;1.00;;;;;;5050734;28;20457;-75
2024/03/15 08:13:11;;;;;;;17.90;15.70;;;13.40;1.00;;;;;;5065103;28;20465;-74
2024/03/15 08:15:41;;;;;;;20.17;15.60;;;13.50;1.00;;;;;;5054718;28;21068;-76
2024/03/15 08:18:08;;;;;;;22.20;16.30;;;13.40;1.00;;;;;;5051972;27;21198;-75
2024/03/15 08:20:35;;;;;;;25.57;21.63;;;13.40;1.00;;;;;;5054232;27;20902;-75
2024/03/15 08:23:04;;;;;;;19.00;15.77;;;13.30;1.00;;;;;;5069134;27;20562;-77
2024/03/15 08:25:31;;;;;;;16.67;14.80;;;13.30;1.00;;;;;;5067694;27;20513;-74
2024/03/15 08:28:01;;;;;;;18.97;15.40;;;13.40;1.00;;;;;;5072332;28;20475;-76
2024/03/15 08:30:28;;;;;;;18.83;14.23;;;13.50;1.00;;;;;;5069511;27;20470;-72
2024/03/15 08:32:57;;;;;;;17.17;14.87;;;13.60;1.00;;;;;;5072188;27;20498;-74
2024/03/15 08:35:24;;;;;;;16.57;14.37;;;13.70;1.00;;;;;;5052005;28;20850;-80
2024/03/15 08:37:52;;;;;;;15.37;13.77;;;14.00;1.00;;;;;;5071289;28;20846;-81
2024/03/15 08:40:20;;;;;;;15.80;14.10;;;14.10;1.00;;;;;;5067788;28;21138;-76
2024/03/15 08:42:47;;;;;;;18.87;15.17;;;14.30;1.00;;;;;;5068308;28;20469;-76
2024/03/15 08:45:14;;;;;;;17.60;14.90;;;14.50;1.00;;;;;;5069475;28;20414;-75
2024/03/15 08:47:41;;;;;;;16.40;13.63;;;14.80;1.00;;;;;;5068839;27;20512;-74
2024/03/15 08:50:11;;;;;;;14.90;13.10;;;15.00;1.00;;;;;;5069588;28;20549;-77
2024/03/15 08:52:39;;;;;;;15.13;13.63;;;15.10;1.00;;;;;;5055869;28;20564;-76
2024/03/15 08:55:08;;;;;;;16.27;14.67;;;15.30;1.00;;;;;;5065509;28;20485;-74
2024/03/15 08:57:36;;;;;;;14.83;13.10;;;15.60;1.00;;;;;;5066903;28;20474;-76
2024/03/15 09:00:06;;;;;;;15.20;12.27;;;15.60;1.00;;;;;;5061208;28;20458;-75
2024/03/15 09:02:33;;;;;;;15.93;13.83;;;15.80;1.00;;;;;;5060551;28;21656;-73
2024/03/15 09:05:01;;;;;;;14.27;12.87;;;16.00;1.00;;;;;;5067216;28;20469;-75
2024/03/15 09:07:31;;;;;;;15.63;13.87;;;15.90;1.00;;;;;;5065893;28;20463;-74
2024/03/15 09:09:58;;;;;;;14.80;13.30;;;16.00;1.00;;;;;;5063163;28;20496;-75
2024/03/15 09:12:25;;;;;;;14.73;12.13;;;15.90;1.00;;;;;;5072826;27;20536;-75
2024/03/15 09:14:54;;;;;;;14.40;12.73;;;15.80;1.00;;;;;;5064511;28;20526;-75
2024/03/15 09:17:21;;;;;;;15.03;12.70;;;16.10;1.00;;;;;;5064920;28;20462;-72
2024/03/15 09:19:53;;;;;;;13.63;12.17;;;16.30;1.00;;;;;;5049928;28;20473;-76
2024/03/15 09:22:21;;;;;;;13.87;12.57;;;16.60;1.00;;;;;;5053444;28;20469;-75
2024/03/15 09:24:48;;;;;;;15.67;13.40;;;17.30;1.00;;;;;;5064878;28;20478;-72
2024/03/15 09:27:17;;;;;;;13.50;12.20;;;17.80;1.00;;;;;;5055943;27;20464;-77
2024/03/15 09:29:49;;;;;;;13.33;11.90;;;18.60;1.00;;;;;;5062969;28;20480;-76
2024/03/15 09:32:21;;;;;;;12.87;11.67;;;19.30;1.00;;;;;;5075943;28;21033;-79
2024/03/15 09:34:49;;;;;;;12.73;11.53;;;20.50;1.00;;;;;;5080115;27;20492;-81
2024/03/15 09:37:19;;;;;;;12.70;11.43;;;21.90;1.00;;;;;;5068552;28;21784;-78
2024/03/15 09:39:46;;;;;;;12.13;11.00;;;23.10;1.00;;;;;;5055000;28;20430;-80
2024/03/15 09:42:15;;;;;;;12.77;11.50;;;23.60;1.00;;;;;;5061644;28;20459;-81
2024/03/15 09:44:42;;;;;;;12.80;11.63;;;23.70;1.00;;;;;;5058281;28;20477;-78
2024/03/15 09:47:10;;;;;;;11.87;10.67;;;23.10;1.00;;;;;;5052934;28;21552;-79
2024/03/15 09:49:38;;;;;;;13.87;12.50;;;22.30;1.00;;;;;;5053995;28;20548;-81
2024/03/15 09:52:07;;;;;;;16.20;12.30;;;21.60;1.00;;;;;;5054580;28;20470;-81
2024/03/15 09:54:34;;;;;;;12.13;10.83;;;21.40;1.00;;;;;;5060607;27;20457;-79
2024/03/15 09:57:04;;;;;;;13.97;12.53;;;21.30;1.00;;;;;;5055001;28;20582;-77
2024/03/15 09:59:32;;;;;;;14.53;12.73;;;20.90;1.00;;;;;;5059750;28;20427;-77
2024/03/15 10:02:02;;;;;;;14.87;11.90;;;20.60;1.00;;;;;;5056925;28;20502;-76
2024/03/15 10:04:29;;;;;;;15.53;12.13;;;20.30;1.00;;;;;;5065559;28;20517;-76
2024/03/15 10:06:56;;;;;;;14.20;11.67;;;20.00;1.00;;;;;;5064073;28;20516;-76
2024/03/15 10:09:23;;;;;;;20.77;11.43;;;20.10;1.00;;;;;;5069018;28;20460;-74
2024/03/15 10:11:50;;;;;;;15.87;11.53;;;20.00;1.00;;;;;;5064322;28;20526;-75
2024/03/15 10:14:17;;;;;;;13.23;11.93;;;20.30;1.00;;;;;;5066601;28;20564;-75
2024/03/15 10:16:44;;;;;;;14.57;11.30;;;20.90;1.00;;;;;;5062938;28;20463;-75
2024/03/15 10:19:11;;;;;;;12.00;10.90;;;21.50;1.00;;;;;;5059949;28;20472;-71
2024/03/15 10:21:38;;;;;;;12.23;11.13;;;21.70;1.00;;;;;;5074379;27;20592;-75
2024/03/15 10:24:06;;;;;;;12.00;10.47;;;22.00;1.00;;;;;;5067551;27;20467;-74
2024/03/15 10:26:33;;;;;;;11.63;10.53;;;22.90;1.00;;;;;;5065692;28;20601;-74
2024/03/15 10:29:00;;;;;;;12.67;11.50;;;23.80;1.00;;;;;;5063715;28;20565;-75
2024/03/15 10:31:27;;;;;;;11.23;10.17;;;24.50;1.00;;;;;;5068043;28;20468;-76
2024/03/15 10:33:54;;;;;;;11.87;10.83;;;24.60;1.00;;;;;;5071357;27;20467;-75
2024/03/15 10:36:21;;;;;;;10.77;9.77;;;25.20;1.00;;;;;;5049739;28;20568;-75
2024/03/15 10:38:48;;;;;;;11.07;9.93;;;25.60;1.00;;;;;;5068350;27;20548;-74
2024/03/15 10:41:15;;;;;;;12.40;11.10;;;25.50;1.00;;;;;;5051388;28;20454;-76
2024/03/15 10:43:42;;;;;;;10.73;9.83;;;25.50;1.00;;;;;;5051465;28;20496;-74
2024/03/15 10:46:09;;;;;;;11.77;10.53;;;26.10;1.00;;;;;;5055622;27;20476;-75
2024/03/15 10:48:36;;;;;;;11.23;10.13;;;26.60;1.00;;;;;;5059553;28;20557;-74
2024/03/15 10:51:04;;;;;;;11.33;10.33;;;26.20;1.00;;;;;;5072381;27;20469;-75
2024/03/15 10:53:31;;;;;;;11.13;10.23;;;25.30;1.00;;;;;;5059897;28;20472;-74
2024/03/15 10:55:59;;;;;;;12.57;11.27;;;25.30;1.00;;;;;;5061459;28;20579;-73
2024/03/15 10:58:27;;;;;;;10.90;9.80;;;25.50;1.00;;;;;;5065603;28;20473;-73
2024/03/15 11:00:55;;;;;;;14.50;12.10;;;24.90;1.00;;;;;;5057186;28;20488;-74
2024/03/15 11:03:25;;;;;;;10.40;9.37;;;25.40;1.00;;;;;;5051386;28;20453;-75
2024/03/15 11:05:52;;;;;;;13.33;9.30;;;25.30;1.00;;;;;;5052708;28;20493;-74
2024/03/15 11:08:19;;;;;;;10.47;9.67;;;24.50;1.00;;;;;;5058903;28;20465;-77
2024/03/15 11:10:54;;;;;;;11.63;10.47;;;23.90;1.00;;;;;;5053337;28;21272;-72
2024/03/15 11:13:21;;;;;;;13.53;10.80;;;23.60;1.00;;;;;;5060447;28;20495;-73
2024/03/15 11:15:48;;;;;;;9.97;9.17;;;24.50;1.00;;;;;;5067098;27;20466;-74
2024/03/15 11:18:17;;;;;;;10.20;9.30;;;25.00;1.00;;;;;;5073237;27;20458;-71
2024/03/15 11:20:45;;;;;;;8.33;7.53;;;25.20;1.00;;;;;;5065644;28;20480;-74
2024/03/15 11:23:12;;;;;;;8.53;7.70;;;25.90;1.00;;;;;;5066031;28;20479;-74
2024/03/15 11:25:42;;;;;;;9.53;8.50;;;26.50;1.00;;;;;;5053616;28;21083;-72
2024/03/15 11:28:09;;;;;;;8.43;7.00;;;27.80;1.00;;;;;;5062108;27;20448;-74
2024/03/15 11:30:36;;;;;;;9.40;8.50;;;29.30;1.00;;;;;;5073453;27;20482;-76
2024/03/15 11:33:03;;;;;;;8.87;8.17;;;30.20;1.00;;;;;;5067424;27;20485;-72
2024/03/15 11:35:30;;;;;;;9.03;8.30;;;30.80;1.00;;;;;;5074621;28;20463;-70
2024/03/15 11:37:57;;;;;;;9.07;8.30;;;31.50;1.00;;;;;;5053018;28;20478;-74
2024/03/15 11:40:25;;;;;;;8.83;8.10;;;32.10;1.00;;;;;;5056694;28;20447;-75
2024/03/15 11:42:52;;;;;;;8.80;8.03;;;32.80;1.00;;;;;;5050406;28;20470;-74
2024/03/15 11:45:20;;;;;;;8.57;7.77;;;33.20;1.00;;;;;;5059830;28;20513;-72
2024/03/15 11:47:55;;;;;;;8.33;7.60;;;33.10;1.00;;;;;;5064033;28;20446;-75
2024/03/15 11:50:24;;;;;;;11.90;8.27;;;33.00;1.00;;;;;;5060473;28;20443;-75
2024/03/15 11:52:58;;;;;;;9.10;8.00;;;33.20;1.00;;;;;;5062949;28;20445;-74
2024/03/15 11:55:25;;;;;;;11.83;8.60;;;33.40;1.00;;;;;;5072438;27;20485;-75
2024/03/15 11:57:53;;;;;;;8.30;7.50;;;33.20;1.00;;;;;;5069786;27;20533;-73
2024/03/15 12:00:23;;;;;;;7.33;6.63;;;32.70;1.00;;;;;;5065916;28;20454;-72
2024/03/15 12:02:51;;;;;;;8.27;7.47;;;32.50;1.00;;;;;;5061960;28;20458;-76
2024/03/15 12:05:18;;;;;;;9.93;9.00;;;32.30;1.00;;;;;;5061366;28;20426;-74
2024/03/15 12:07:45;;;;;;;9.03;8.27;;;31.90;1.00;;;;;;5059039;28;20885;-73
2024/03/15 12:10:14;;;;;;;9.40;8.70;;;31.80;1.00;;;;;;5064358;28;20458;-71
2024/03/15 12:12:41;;;;;;;9.93;9.03;;;31.30;1.00;;;;;;5064133;27;20481;-74
2024/03/15 12:15:27;;;;;;;8.83;8.13;;;31.90;1.00;;;;;;5059577;28;20532;-77
2024/03/15 12:17:59;;;;;;;7.97;7.33;;;32.60;1.00;;;;;;5059961;28;21227;-73
2024/03/15 12:20:28;;;;;;;9.27;8.50;;;32.60;1.00;;;;;;5054455;28;21273;-75
2024/03/15 12:22:55;;;;;;;9.33;8.17;;;33.40;1.00;;;;;;5063927;27;20555;-74
2024/03/15 12:25:23;;;;;;;9.67;8.67;;;33.80;1.00;;;;;;5047329;28;20466;-75
2024/03/15 12:27:50;;;;;;;9.17;8.40;;;33.40;1.00;;;;;;5044440;28;20529;-74
2024/03/15 12:30:18;;;;;;;8.50;7.80;;;33.60;1.00;;;;;;5050207;28;20871;-73
2024/03/15 12:32:45;;;;;;;8.20;7.60;;;33.70;1.00;;;;;;5051479;28;20928;-75
2024/03/15 12:35:13;;;;;;;8.90;8.17;;;33.80;1.00;;;;;;5064332;28;20478;-75
2024/03/15 12:37:40;;;;;;;10.10;9.20;;;33.70;1.00;;;;;;5068696;28;20481;-75
2024/03/15 12:40:09;;;;;;;8.00;7.30;;;33.50;1.00;;;;;;5061427;28;20478;-73
2024/03/15 12:42:36;;;;;;;8.07;7.37;;;33.70;1.00;;;;;;5066886;28;20532;-74
2024/03/15 12:45:03;;;;;;;6.80;6.30;;;34.00;1.00;;;;;;5069881;28;20557;-73
2024/03/15 12:47:36;;;;;;;8.00;7.30;;;34.10;1.00;;;;;;5049717;28;20458;-74
2024/03/15 12:50:05;;;;;;;8.60;7.80;;;33.10;1.00;;;;;;5073851;28;20454;-74
2024/03/15 12:52:33;;;;;;;8.27;7.53;;;32.90;1.00;;;;;;5077056;28;21031;-74